sensor_id;sensor_type;location;lat;lon;timestamp;pressure;altitude;pressure_sealevel;temperature;humidity
43701;BME280;58809;47.984;7.964;2023-02-28T00:02:45;97595.59;;;-0.90;60.04
43701;BME280;58809;47.984;7.964;2023-02-28T00:05:47;97589.28;;;-0.86;60.12
43701;BME280;58809;47.984;7.964;2023-02-28T00:08:48;97596.97;;;-0.84;60.12
43701;BME280;58809;47.984;7.964;2023-02-28T00:11:50;97587.31;;;-0.82;59.87
43701;BME280;58809;47.984;7.964;2023-02-28T00:14:52;97575.16;;;-0.82;60.17
43701;BME280;58809;47.984;7.964;2023-02-28T00:17:53;97583.78;;;-0.68;59.85
43701;BME280;58809;47.984;7.964;2023-02-28T00:20:55;97586.09;;;-0.64;60.17
43701;BME280;58809;47.984;7.964;2023-02-28T00:23:56;97585.50;;;-0.54;59.95
43701;BME280;58809;47.984;7.964;2023-02-28T00:26:58;97595.16;;;-0.56;59.93
43701;BME280;58809;47.984;7.964;2023-02-28T00:29:59;97588.38;;;-0.59;59.71
43701;BME280;58809;47.984;7.964;2023-02-28T00:33:01;97585.16;;;-0.63;60.01
43701;BME280;58809;47.984;7.964;2023-02-28T00:36:11;97590.25;;;-0.61;59.91
43701;BME280;58809;47.984;7.964;2023-02-28T00:39:13;97583.19;;;-0.59;60.17
43701;BME280;58809;47.984;7.964;2023-02-28T00:42:14;97587.13;;;-0.53;60.23
43701;BME280;58809;47.984;7.964;2023-02-28T00:45:16;97589.44;;;-0.49;59.89
43701;BME280;58809;47.984;7.964;2023-02-28T00:48:18;97584.44;;;-0.52;60.37
43701;BME280;58809;47.984;7.964;2023-02-28T00:51:19;97592.97;;;-0.50;60.28
43701;BME280;58809;47.984;7.964;2023-02-28T00:54:21;97587.13;;;-0.53;60.53
43701;BME280;58809;47.984;7.964;2023-02-28T00:57:23;97579.97;;;-0.50;60.27
43701;BME280;58809;47.984;7.964;2023-02-28T01:00:24;97584.25;;;-0.49;60.35
43701;BME280;58809;47.984;7.964;2023-02-28T01:03:26;97585.25;;;-0.51;60.23
43701;BME280;58809;47.984;7.964;2023-02-28T01:06:27;97591.41;;;-0.52;60.75
43701;BME280;58809;47.984;7.964;2023-02-28T01:09:29;97577.28;;;-0.48;60.45
43701;BME280;58809;47.984;7.964;2023-02-28T01:12:32;97582.66;;;-0.51;60.88
43701;BME280;58809;47.984;7.964;2023-02-28T01:15:33;97574.13;;;-0.53;60.55
43701;BME280;58809;47.984;7.964;2023-02-28T01:18:36;97575.09;;;-0.42;60.94
43701;BME280;58809;47.984;7.964;2023-02-28T01:21:38;97576.13;;;-0.44;60.74
43701;BME280;58809;47.984;7.964;2023-02-28T01:24:40;97578.00;;;-0.46;60.69
43701;BME280;58809;47.984;7.964;2023-02-28T01:27:41;97568.03;;;-0.52;60.79
43701;BME280;58809;47.984;7.964;2023-02-28T01:30:47;97571.66;;;-0.55;61.46
43701;BME280;58809;47.984;7.964;2023-02-28T01:33:49;97571.66;;;-0.55;61.26
43701;BME280;58809;47.984;7.964;2023-02-28T01:36:51;97578.59;;;-0.55;60.98
43701;BME280;58809;47.984;7.964;2023-02-28T01:39:53;97577.47;;;-0.51;61.27
43701;BME280;58809;47.984;7.964;2023-02-28T01:42:54;97577.28;;;-0.48;61.08
43701;BME280;58809;47.984;7.964;2023-02-28T01:45:57;97575.28;;;-0.45;60.94
43701;BME280;58809;47.984;7.964;2023-02-28T01:49:11;97568.22;;;-0.55;61.32
43701;BME280;58809;47.984;7.964;2023-02-28T01:52:14;97569.34;;;-0.60;61.23
43701;BME280;58809;47.984;7.964;2023-02-28T01:55:21;97570.81;;;-0.55;61.54
43701;BME280;58809;47.984;7.964;2023-02-28T01:58:24;97560.22;;;-0.65;61.38
43701;BME280;58809;47.984;7.964;2023-02-28T02:01:27;97555.63;;;-0.62;61.43
43701;BME280;58809;47.984;7.964;2023-02-28T02:04:36;97564.06;;;-0.58;61.75
43701;BME280;58809;47.984;7.964;2023-02-28T02:07:41;97557.63;;;-0.52;61.70
43701;BME280;58809;47.984;7.964;2023-02-28T02:10:52;97554.06;;;-0.51;61.49
43701;BME280;58809;47.984;7.964;2023-02-28T02:20:32;97550.75;;;-0.53;61.75
43701;BME280;58809;47.984;7.964;2023-02-28T02:23:55;97549.09;;;-0.54;61.88
43701;BME280;58809;47.984;7.964;2023-02-28T02:40:34;97538.81;;;-0.43;61.63
43701;BME280;58809;47.984;7.964;2023-02-28T02:43:50;97534.03;;;-0.49;62.25
43701;BME280;58809;47.984;7.964;2023-02-28T02:47:09;97540.06;;;-0.49;62.18
43701;BME280;58809;47.984;7.964;2023-02-28T02:50:17;97539.94;;;-0.47;62.25
43701;BME280;58809;47.984;7.964;2023-02-28T02:53:25;97537.44;;;-0.49;62.07
43701;BME280;58809;47.984;7.964;2023-02-28T02:56:31;97542.44;;;-0.46;62.10
43701;BME280;58809;47.984;7.964;2023-02-28T02:59:38;97534.53;;;-0.44;62.25
43701;BME280;58809;47.984;7.964;2023-02-28T03:02:40;97534.75;;;-0.47;62.42
43701;BME280;58809;47.984;7.964;2023-02-28T03:05:46;97529.94;;;-0.41;62.89
43701;BME280;58809;47.984;7.964;2023-02-28T03:08:49;97530.56;;;-0.37;62.51
43701;BME280;58809;47.984;7.964;2023-02-28T03:11:52;97533.91;;;-0.35;62.76
43701;BME280;58809;47.984;7.964;2023-02-28T03:15:48;97534.75;;;-0.34;62.85
43701;BME280;58809;47.984;7.964;2023-02-28T03:18:36;97534.41;;;-0.30;63.00
43701;BME280;58809;47.984;7.964;2023-02-28T03:25:29;97529.66;;;-0.49;63.10
43701;BME280;58809;47.984;7.964;2023-02-28T03:28:43;97533.06;;;-0.48;63.18
43701;BME280;58809;47.984;7.964;2023-02-28T03:31:58;97531.28;;;-0.48;63.49
43701;BME280;58809;47.984;7.964;2023-02-28T03:35:22;97534.66;;;-0.46;64.05
43701;BME280;58809;47.984;7.964;2023-02-28T03:38:41;97539.22;;;-0.62;65.70
43701;BME280;58809;47.984;7.964;2023-02-28T03:41:49;97541.38;;;-0.69;65.69
43701;BME280;58809;47.984;7.964;2023-02-28T03:44:59;97541.59;;;-0.72;65.73
43701;BME280;58809;47.984;7.964;2023-02-28T03:48:19;97544.19;;;-0.72;66.31
43701;BME280;58809;47.984;7.964;2023-02-28T03:51:24;97547.63;;;-0.71;66.97
43701;BME280;58809;47.984;7.964;2023-02-28T03:54:31;97542.72;;;-0.76;67.64
43701;BME280;58809;47.984;7.964;2023-02-28T03:57:47;97541.38;;;-0.82;67.84
43701;BME280;58809;47.984;7.964;2023-02-28T04:00:56;97537.94;;;-0.82;68.42
43701;BME280;58809;47.984;7.964;2023-02-28T04:04:00;97540.31;;;-0.79;69.14
43701;BME280;58809;47.984;7.964;2023-02-28T04:07:08;97545.31;;;-0.76;69.51
43701;BME280;58809;47.984;7.964;2023-02-28T04:10:12;97536.06;;;-0.80;69.65
43701;BME280;58809;47.984;7.964;2023-02-28T04:13:14;97542.59;;;-0.87;70.86
43701;BME280;58809;47.984;7.964;2023-02-28T04:16:15;97544.47;;;-0.89;71.48
43701;BME280;58809;47.984;7.964;2023-02-28T04:19:34;97545.94;;;-0.85;71.99
43701;BME280;58809;47.984;7.964;2023-02-28T04:22:36;97547.88;;;-1.02;71.90
43701;BME280;58809;47.984;7.964;2023-02-28T04:25:38;97553.38;;;-0.93;72.58
43701;BME280;58809;47.984;7.964;2023-02-28T04:28:41;97548.63;;;-0.87;72.16
43701;BME280;58809;47.984;7.964;2023-02-28T04:31:43;97549.22;;;-0.96;71.97
43701;BME280;58809;47.984;7.964;2023-02-28T04:34:44;97548.50;;;-0.98;72.66
43701;BME280;58809;47.984;7.964;2023-02-28T04:37:46;97555.47;;;-0.99;72.91
43701;BME280;58809;47.984;7.964;2023-02-28T04:40:47;97541.75;;;-1.01;73.28
43701;BME280;58809;47.984;7.964;2023-02-28T04:43:51;97541.34;;;-0.94;73.15
43701;BME280;58809;47.984;7.964;2023-02-28T04:46:53;97544.44;;;-1.02;72.83
43701;BME280;58809;47.984;7.964;2023-02-28T04:49:54;97547.75;;;-1.13;73.10
43701;BME280;58809;47.984;7.964;2023-02-28T04:52:56;97553.53;;;-1.22;73.33
43701;BME280;58809;47.984;7.964;2023-02-28T04:55:58;97543.69;;;-1.17;73.39
43701;BME280;58809;47.984;7.964;2023-02-28T04:58:59;97549.00;;;-1.06;73.13
43701;BME280;58809;47.984;7.964;2023-02-28T05:02:01;97552.88;;;-0.99;72.52
43701;BME280;58809;47.984;7.964;2023-02-28T05:05:08;97556.59;;;-1.03;72.35
43701;BME280;58809;47.984;7.964;2023-02-28T05:08:09;97561.94;;;-0.91;72.55
43701;BME280;58809;47.984;7.964;2023-02-28T05:11:19;97557.88;;;-0.83;72.14
43701;BME280;58809;47.984;7.964;2023-02-28T05:14:21;97561.84;;;-0.77;71.63
43701;BME280;58809;47.984;7.964;2023-02-28T05:17:23;97567.16;;;-0.79;71.46
43701;BME280;58809;47.984;7.964;2023-02-28T05:20:24;97568.19;;;-0.81;71.69
43701;BME280;58809;47.984;7.964;2023-02-28T05:23:26;97576.69;;;-0.79;71.60
43701;BME280;58809;47.984;7.964;2023-02-28T05:26:29;97575.44;;;-0.86;71.47
43701;BME280;58809;47.984;7.964;2023-02-28T05:29:31;97572.34;;;-0.91;71.43
43701;BME280;58809;47.984;7.964;2023-02-28T05:32:32;97578.34;;;-0.91;71.44
43701;BME280;58809;47.984;7.964;2023-02-28T05:35:40;97578.44;;;-0.92;71.78
43701;BME280;58809;47.984;7.964;2023-02-28T05:38:42;97579.72;;;-0.85;72.06
43701;BME280;58809;47.984;7.964;2023-02-28T05:41:44;97581.25;;;-0.83;71.46
43701;BME280;58809;47.984;7.964;2023-02-28T05:44:46;97581.50;;;-0.86;72.12
43701;BME280;58809;47.984;7.964;2023-02-28T05:47:47;97583.88;;;-0.83;72.42
43701;BME280;58809;47.984;7.964;2023-02-28T05:50:49;97580.97;;;-0.78;72.57
43701;BME280;58809;47.984;7.964;2023-02-28T05:53:50;97582.75;;;-0.79;72.57
43701;BME280;58809;47.984;7.964;2023-02-28T05:56:52;97575.66;;;-0.89;72.77
43701;BME280;58809;47.984;7.964;2023-02-28T05:59:53;97588.75;;;-0.91;73.10
43701;BME280;58809;47.984;7.964;2023-02-28T06:02:55;97588.28;;;-0.98;73.31
43701;BME280;58809;47.984;7.964;2023-02-28T06:05:59;97585.69;;;-0.98;73.18
43701;BME280;58809;47.984;7.964;2023-02-28T06:09:01;97586.66;;;-0.99;73.30
43701;BME280;58809;47.984;7.964;2023-02-28T06:12:05;97588.09;;;-0.94;72.88
43701;BME280;58809;47.984;7.964;2023-02-28T06:15:12;97587.69;;;-0.88;73.18
43701;BME280;58809;47.984;7.964;2023-02-28T06:18:15;97581.97;;;-0.93;73.00
43701;BME280;58809;47.984;7.964;2023-02-28T06:21:16;97586.25;;;-0.92;73.35
43701;BME280;58809;47.984;7.964;2023-02-28T06:24:21;97591.34;;;-0.91;72.28
43701;BME280;58809;47.984;7.964;2023-02-28T06:27:23;97588.97;;;-0.81;72.29
43701;BME280;58809;47.984;7.964;2023-02-28T06:30:25;97590.66;;;-0.80;71.48
43701;BME280;58809;47.984;7.964;2023-02-28T06:33:28;97591.56;;;-0.81;71.15
43701;BME280;58809;47.984;7.964;2023-02-28T06:36:30;97595.63;;;-0.77;70.96
43701;BME280;58809;47.984;7.964;2023-02-28T06:39:32;97592.28;;;-0.79;71.15
43701;BME280;58809;47.984;7.964;2023-02-28T06:42:33;97599.19;;;-0.65;70.96
43701;BME280;58809;47.984;7.964;2023-02-28T06:45:35;97608.75;;;-0.66;70.48
43701;BME280;58809;47.984;7.964;2023-02-28T06:48:37;97607.09;;;-0.54;70.76
43701;BME280;58809;47.984;7.964;2023-02-28T06:51:42;97609.91;;;-0.57;70.17
43701;BME280;58809;47.984;7.964;2023-02-28T06:54:46;97614.69;;;-0.64;70.21
43701;BME280;58809;47.984;7.964;2023-02-28T06:57:48;97601.56;;;-0.75;69.93
43701;BME280;58809;47.984;7.964;2023-02-28T07:00:52;97611.75;;;-0.72;69.75
43701;BME280;58809;47.984;7.964;2023-02-28T07:03:54;97604.38;;;-0.78;69.51
43701;BME280;58809;47.984;7.964;2023-02-28T07:06:56;97618.75;;;-0.60;70.04
43701;BME280;58809;47.984;7.964;2023-02-28T07:09:58;97616.88;;;-0.57;69.72
43701;BME280;58809;47.984;7.964;2023-02-28T07:13:00;97616.25;;;-0.61;69.61
43701;BME280;58809;47.984;7.964;2023-02-28T07:16:06;97623.22;;;-0.62;69.45
43701;BME280;58809;47.984;7.964;2023-02-28T07:19:10;97637.25;;;-0.51;69.63
43701;BME280;58809;47.984;7.964;2023-02-28T07:22:12;97623.53;;;-0.53;69.48
43701;BME280;58809;47.984;7.964;2023-02-28T07:25:16;97620.94;;;-0.41;69.37
43701;BME280;58809;47.984;7.964;2023-02-28T07:28:17;97626.47;;;-0.32;68.97
43701;BME280;58809;47.984;7.964;2023-02-28T07:31:19;97628.56;;;-0.25;69.52
43701;BME280;58809;47.984;7.964;2023-02-28T07:34:21;97629.94;;;-0.06;69.18
43701;BME280;58809;47.984;7.964;2023-02-28T07:37:22;97631.69;;;0.06;68.61
43701;BME280;58809;47.984;7.964;2023-02-28T07:40:24;97631.50;;;0.09;68.22
43701;BME280;58809;47.984;7.964;2023-02-28T07:43:26;97629.00;;;0.08;68.03
43701;BME280;58809;47.984;7.964;2023-02-28T07:46:27;97635.94;;;0.07;67.97
43701;BME280;58809;47.984;7.964;2023-02-28T07:49:31;97635.53;;;0.13;68.10
43701;BME280;58809;47.984;7.964;2023-02-28T07:52:33;97633.34;;;0.07;67.44
43701;BME280;58809;47.984;7.964;2023-02-28T07:55:34;97638.78;;;0.17;67.93
43701;BME280;58809;47.984;7.964;2023-02-28T07:58:36;97638.25;;;0.25;67.79
43701;BME280;58809;47.984;7.964;2023-02-28T08:01:37;97637.00;;;0.17;66.93
43701;BME280;58809;47.984;7.964;2023-02-28T08:04:39;97633.47;;;0.18;67.17
43701;BME280;58809;47.984;7.964;2023-02-28T08:07:41;97634.41;;;0.17;66.77
43701;BME280;58809;47.984;7.964;2023-02-28T08:10:43;97638.94;;;0.40;66.89
43701;BME280;58809;47.984;7.964;2023-02-28T08:13:45;97644.44;;;0.61;66.04
43701;BME280;58809;47.984;7.964;2023-02-28T08:16:46;97646.25;;;0.71;65.74
43701;BME280;58809;47.984;7.964;2023-02-28T08:19:48;97642.19;;;0.80;65.22
43701;BME280;58809;47.984;7.964;2023-02-28T08:22:50;97644.88;;;0.79;65.42
43701;BME280;58809;47.984;7.964;2023-02-28T08:25:55;97640.28;;;0.82;65.39
43701;BME280;58809;47.984;7.964;2023-02-28T08:28:57;97640.50;;;0.92;64.96
43701;BME280;58809;47.984;7.964;2023-02-28T08:32:01;97653.06;;;0.98;64.46
43701;BME280;58809;47.984;7.964;2023-02-28T08:35:03;97661.03;;;0.84;64.38
43701;BME280;58809;47.984;7.964;2023-02-28T08:38:05;97659.88;;;0.88;64.35
43701;BME280;58809;47.984;7.964;2023-02-28T08:41:09;97652.84;;;0.77;64.62
43701;BME280;58809;47.984;7.964;2023-02-28T08:44:11;97663.47;;;0.74;64.46
43701;BME280;58809;47.984;7.964;2023-02-28T08:47:12;97677.81;;;0.80;64.12
43701;BME280;58809;47.984;7.964;2023-02-28T08:50:14;97666.53;;;0.92;63.93
43701;BME280;58809;47.984;7.964;2023-02-28T08:53:16;97671.09;;;1.01;63.27
43701;BME280;58809;47.984;7.964;2023-02-28T08:56:19;97680.53;;;1.15;63.43
43701;BME280;58809;47.984;7.964;2023-02-28T08:59:20;97679.25;;;1.21;63.19
43701;BME280;58809;47.984;7.964;2023-02-28T09:02:22;97684.41;;;1.33;62.87
43701;BME280;58809;47.984;7.964;2023-02-28T09:05:23;97678.09;;;1.49;62.70
43701;BME280;58809;47.984;7.964;2023-02-28T09:08:27;97683.81;;;1.54;62.43
43701;BME280;58809;47.984;7.964;2023-02-28T09:11:28;97688.09;;;1.66;62.14
43701;BME280;58809;47.984;7.964;2023-02-28T09:14:30;97671.13;;;1.61;62.11
43701;BME280;58809;47.984;7.964;2023-02-28T09:17:32;97677.75;;;1.65;61.91
43701;BME280;58809;47.984;7.964;2023-02-28T09:20:33;97687.13;;;1.56;61.74
43701;BME280;58809;47.984;7.964;2023-02-28T09:23:35;97673.63;;;1.62;61.82
43701;BME280;58809;47.984;7.964;2023-02-28T09:26:39;97690.75;;;1.78;61.71
43701;BME280;58809;47.984;7.964;2023-02-28T09:29:51;97694.59;;;1.61;61.47
43701;BME280;58809;47.984;7.964;2023-02-28T09:32:53;97689.63;;;1.93;61.35
43701;BME280;58809;47.984;7.964;2023-02-28T09:35:59;97694.88;;;2.16;60.79
43701;BME280;58809;47.984;7.964;2023-02-28T09:39:02;97693.78;;;2.07;61.13
43701;BME280;58809;47.984;7.964;2023-02-28T09:42:04;97705.28;;;1.93;60.79
43701;BME280;58809;47.984;7.964;2023-02-28T09:45:21;97698.03;;;1.97;60.93
43701;BME280;58809;47.984;7.964;2023-02-28T09:48:28;97701.06;;;2.26;60.30
43701;BME280;58809;47.984;7.964;2023-02-28T09:51:49;97702.38;;;2.20;59.98
43701;BME280;58809;47.984;7.964;2023-02-28T09:54:52;97707.34;;;2.23;60.37
43701;BME280;58809;47.984;7.964;2023-02-28T09:57:54;97705.72;;;2.45;60.51
43701;BME280;58809;47.984;7.964;2023-02-28T10:01:12;97703.69;;;2.48;60.25
43701;BME280;58809;47.984;7.964;2023-02-28T10:07:53;97697.41;;;2.62;59.76
43701;BME280;58809;47.984;7.964;2023-02-28T10:11:02;97699.44;;;2.47;59.41
43701;BME280;58809;47.984;7.964;2023-02-28T10:17:27;97698.09;;;2.19;60.25
43701;BME280;58809;47.984;7.964;2023-02-28T10:20:40;97697.03;;;2.22;60.34
43701;BME280;58809;47.984;7.964;2023-02-28T10:23:43;97696.34;;;2.31;60.35
43701;BME280;58809;47.984;7.964;2023-02-28T10:26:52;97706.78;;;2.54;59.81
43701;BME280;58809;47.984;7.964;2023-02-28T10:29:57;97700.84;;;2.63;59.45
43701;BME280;58809;47.984;7.964;2023-02-28T10:32:59;97710.47;;;2.62;59.51
43701;BME280;58809;47.984;7.964;2023-02-28T10:36:02;97704.78;;;2.46;59.50
43701;BME280;58809;47.984;7.964;2023-02-28T10:39:45;97712.94;;;2.53;59.84
43701;BME280;58809;47.984;7.964;2023-02-28T10:43:05;97711.19;;;2.53;59.84
43701;BME280;58809;47.984;7.964;2023-02-28T10:49:17;97714.28;;;2.69;59.54
43701;BME280;58809;47.984;7.964;2023-02-28T10:52:39;97721.03;;;2.72;59.74
43701;BME280;58809;47.984;7.964;2023-02-28T10:55:41;97723.66;;;2.72;59.66
43701;BME280;58809;47.984;7.964;2023-02-28T10:58:51;97727.91;;;2.62;59.21
43701;BME280;58809;47.984;7.964;2023-02-28T11:01:52;97727.94;;;2.73;59.66
43701;BME280;58809;47.984;7.964;2023-02-28T11:04:54;97727.34;;;2.81;59.37
43701;BME280;58809;47.984;7.964;2023-02-28T11:08:14;97720.44;;;2.80;59.32
43701;BME280;58809;47.984;7.964;2023-02-28T11:11:17;97720.81;;;2.86;58.97
43701;BME280;58809;47.984;7.964;2023-02-28T11:14:21;97721.75;;;2.85;59.07
43701;BME280;58809;47.984;7.964;2023-02-28T11:17:30;97709.53;;;2.86;58.98
43701;BME280;58809;47.984;7.964;2023-02-28T11:20:33;97718.41;;;3.17;58.87
43701;BME280;58809;47.984;7.964;2023-02-28T11:23:36;97717.63;;;3.38;57.87
43701;BME280;58809;47.984;7.964;2023-02-28T11:26:45;97717.16;;;3.33;58.12
43701;BME280;58809;47.984;7.964;2023-02-28T11:29:47;97720.19;;;3.49;57.34
43701;BME280;58809;47.984;7.964;2023-02-28T11:32:49;97718.28;;;3.51;57.37
43701;BME280;58809;47.984;7.964;2023-02-28T11:35:51;97724.16;;;3.76;57.98
43701;BME280;58809;47.984;7.964;2023-02-28T11:39:03;97723.47;;;3.95;57.00
43701;BME280;58809;47.984;7.964;2023-02-28T11:45:34;97708.56;;;4.37;56.24
43701;BME280;58809;47.984;7.964;2023-02-28T11:48:55;97711.44;;;4.55;56.33
43701;BME280;58809;47.984;7.964;2023-02-28T11:51:59;97711.09;;;4.70;56.32
43701;BME280;58809;47.984;7.964;2023-02-28T11:55:24;97704.94;;;4.80;55.40
43701;BME280;58809;47.984;7.964;2023-02-28T11:58:50;97708.47;;;4.70;55.37
43701;BME280;58809;47.984;7.964;2023-02-28T12:05:32;97712.44;;;4.64;55.88
43701;BME280;58809;47.984;7.964;2023-02-28T12:11:55;97707.66;;;4.69;55.94
43701;BME280;58809;47.984;7.964;2023-02-28T12:28:02;97697.88;;;4.81;56.14
43701;BME280;58809;47.984;7.964;2023-02-28T12:31:09;97695.50;;;4.68;56.38
43701;BME280;58809;47.984;7.964;2023-02-28T12:34:16;97706.06;;;4.57;56.41
43701;BME280;58809;47.984;7.964;2023-02-28T12:37:28;97701.97;;;4.43;55.99
43701;BME280;58809;47.984;7.964;2023-02-28T12:41:00;97701.53;;;4.59;55.65
43701;BME280;58809;47.984;7.964;2023-02-28T12:44:09;97705.94;;;4.58;55.68
43701;BME280;58809;47.984;7.964;2023-02-28T12:47:16;97702.41;;;4.69;55.56
43701;BME280;58809;47.984;7.964;2023-02-28T12:50:17;97695.97;;;4.83;55.38
43701;BME280;58809;47.984;7.964;2023-02-28T12:53:35;97697.03;;;4.71;55.30
43701;BME280;58809;47.984;7.964;2023-02-28T13:00:13;97679.59;;;5.10;55.57
43701;BME280;58809;47.984;7.964;2023-02-28T13:09:59;97680.78;;;5.47;54.64
43701;BME280;58809;47.984;7.964;2023-02-28T13:13:03;97673.03;;;5.35;55.08
43701;BME280;58809;47.984;7.964;2023-02-28T13:19:11;97678.00;;;5.48;54.52
43701;BME280;58809;47.984;7.964;2023-02-28T13:22:37;97677.47;;;5.35;54.04
43701;BME280;58809;47.984;7.964;2023-02-28T13:29:00;97676.59;;;5.34;54.85
43701;BME280;58809;47.984;7.964;2023-02-28T13:38:15;97679.00;;;4.87;55.37
43701;BME280;58809;47.984;7.964;2023-02-28T13:48:17;97676.72;;;5.13;54.78
43701;BME280;58809;47.984;7.964;2023-02-28T13:51:37;97676.47;;;5.36;54.55
43701;BME280;58809;47.984;7.964;2023-02-28T13:58:19;97693.75;;;5.58;53.69
43701;BME280;58809;47.984;7.964;2023-02-28T14:07:43;97692.69;;;6.00;53.85
43701;BME280;58809;47.984;7.964;2023-02-28T14:10:49;97692.13;;;6.06;53.62
43701;BME280;58809;47.984;7.964;2023-02-28T14:13:51;97692.38;;;5.93;53.62
43701;BME280;58809;47.984;7.964;2023-02-28T14:16:53;97701.22;;;5.82;53.91
43701;BME280;58809;47.984;7.964;2023-02-28T14:19:57;97707.13;;;5.26;53.72
43701;BME280;58809;47.984;7.964;2023-02-28T14:23:22;97713.16;;;5.07;54.12
43701;BME280;58809;47.984;7.964;2023-02-28T14:33:38;97710.66;;;6.14;52.85
43701;BME280;58809;47.984;7.964;2023-02-28T14:36:24;97713.44;;;6.03;53.18
43701;BME280;58809;47.984;7.964;2023-02-28T14:39:28;97706.66;;;6.57;52.73
43701;BME280;58809;47.984;7.964;2023-02-28T14:42:34;97708.56;;;6.74;51.56
43701;BME280;58809;47.984;7.964;2023-02-28T14:45:36;97708.13;;;7.07;51.84
43701;BME280;58809;47.984;7.964;2023-02-28T14:48:38;97713.63;;;7.59;50.64
43701;BME280;58809;47.984;7.964;2023-02-28T14:51:40;97705.66;;;7.23;50.50
43701;BME280;58809;47.984;7.964;2023-02-28T14:54:43;97712.00;;;7.12;50.86
43701;BME280;58809;47.984;7.964;2023-02-28T15:01:02;97724.56;;;6.81;51.28
43701;BME280;58809;47.984;7.964;2023-02-28T15:04:06;97720.44;;;6.79;51.40
43701;BME280;58809;47.984;7.964;2023-02-28T15:07:15;97726.38;;;6.24;52.31
43701;BME280;58809;47.984;7.964;2023-02-28T15:10:21;97714.09;;;5.85;52.85
43701;BME280;58809;47.984;7.964;2023-02-28T15:16:43;97708.16;;;5.73;53.44
43701;BME280;58809;47.984;7.964;2023-02-28T15:19:48;97722.66;;;5.87;52.81
43701;BME280;58809;47.984;7.964;2023-02-28T15:22:54;97715.06;;;5.65;53.56
43701;BME280;58809;47.984;7.964;2023-02-28T15:25:58;97715.53;;;5.29;53.40
43701;BME280;58809;47.984;7.964;2023-02-28T15:29:04;97718.69;;;5.13;54.04
43701;BME280;58809;47.984;7.964;2023-02-28T15:32:07;97720.75;;;5.10;54.58
43701;BME280;58809;47.984;7.964;2023-02-28T15:35:28;97728.78;;;5.18;55.06
43701;BME280;58809;47.984;7.964;2023-02-28T15:38:34;97721.88;;;5.17;54.91
43701;BME280;58809;47.984;7.964;2023-02-28T15:41:37;97721.59;;;5.10;54.69
43701;BME280;58809;47.984;7.964;2023-02-28T15:44:39;97724.56;;;4.96;54.91
43701;BME280;58809;47.984;7.964;2023-02-28T15:47:45;97721.94;;;4.96;55.37
43701;BME280;58809;47.984;7.964;2023-02-28T15:50:53;97731.94;;;5.02;55.26
43701;BME280;58809;47.984;7.964;2023-02-28T15:54:05;97722.50;;;4.99;55.37
43701;BME280;58809;47.984;7.964;2023-02-28T15:57:15;97720.63;;;5.11;55.08
43701;BME280;58809;47.984;7.964;2023-02-28T16:00:21;97726.47;;;5.34;54.27
43701;BME280;58809;47.984;7.964;2023-02-28T16:03:32;97721.94;;;5.46;53.60
43701;BME280;58809;47.984;7.964;2023-02-28T16:06:43;97722.44;;;5.20;53.92
43701;BME280;58809;47.984;7.964;2023-02-28T16:09:45;97729.22;;;5.33;54.17
43701;BME280;58809;47.984;7.964;2023-02-28T16:12:48;97732.06;;;5.10;53.94
43701;BME280;58809;47.984;7.964;2023-02-28T16:15:49;97726.50;;;4.94;55.06
43701;BME280;58809;47.984;7.964;2023-02-28T16:18:52;97736.03;;;4.64;55.09
43701;BME280;58809;47.984;7.964;2023-02-28T16:21:54;97732.81;;;4.30;55.85
43701;BME280;58809;47.984;7.964;2023-02-28T16:24:56;97737.50;;;3.94;56.56
43701;BME280;58809;47.984;7.964;2023-02-28T16:27:57;97742.72;;;3.73;56.91
43701;BME280;58809;47.984;7.964;2023-02-28T16:31:03;97739.09;;;3.53;57.61
43701;BME280;58809;47.984;7.964;2023-02-28T16:34:05;97745.91;;;3.44;58.34
43701;BME280;58809;47.984;7.964;2023-02-28T16:37:12;97745.19;;;3.42;58.07
43701;BME280;58809;47.984;7.964;2023-02-28T16:40:16;97740.19;;;3.39;58.14
43701;BME280;58809;47.984;7.964;2023-02-28T16:43:23;97749.16;;;3.25;58.44
43701;BME280;58809;47.984;7.964;2023-02-28T16:46:33;97751.09;;;3.12;58.47
43701;BME280;58809;47.984;7.964;2023-02-28T16:49:35;97749.19;;;3.02;59.55
43701;BME280;58809;47.984;7.964;2023-02-28T16:52:37;97747.41;;;2.92;59.57
43701;BME280;58809;47.984;7.964;2023-02-28T16:55:39;97758.00;;;2.79;60.23
43701;BME280;58809;47.984;7.964;2023-02-28T16:58:40;97750.84;;;2.58;60.73
43701;BME280;58809;47.984;7.964;2023-02-28T17:01:42;97756.84;;;2.36;61.48
43701;BME280;58809;47.984;7.964;2023-02-28T17:04:43;97762.03;;;2.14;62.11
43701;BME280;58809;47.984;7.964;2023-02-28T17:07:46;97762.69;;;1.93;63.21
43701;BME280;58809;47.984;7.964;2023-02-28T17:10:48;97762.66;;;1.82;63.63
43701;BME280;58809;47.984;7.964;2023-02-28T17:13:50;97758.78;;;1.63;64.17
43701;BME280;58809;47.984;7.964;2023-02-28T17:16:51;97763.81;;;1.53;64.32
43701;BME280;58809;47.984;7.964;2023-02-28T17:19:53;97770.97;;;1.39;65.13
43701;BME280;58809;47.984;7.964;2023-02-28T17:22:55;97777.28;;;1.23;65.75
43701;BME280;58809;47.984;7.964;2023-02-28T17:25:57;97775.97;;;1.05;66.33
43701;BME280;58809;47.984;7.964;2023-02-28T17:28:59;97783.28;;;0.87;67.00
43701;BME280;58809;47.984;7.964;2023-02-28T17:32:00;97779.97;;;0.72;67.63
43701;BME280;58809;47.984;7.964;2023-02-28T17:35:17;97787.06;;;0.70;68.18
43701;BME280;58809;47.984;7.964;2023-02-28T17:38:19;97786.28;;;0.68;68.30
43701;BME280;58809;47.984;7.964;2023-02-28T17:41:20;97793.19;;;0.56;68.32
43701;BME280;58809;47.984;7.964;2023-02-28T17:44:23;97801.63;;;0.47;68.75
43701;BME280;58809;47.984;7.964;2023-02-28T17:47:25;97795.16;;;0.40;68.92
43701;BME280;58809;47.984;7.964;2023-02-28T17:50:27;97797.31;;;0.33;69.12
43701;BME280;58809;47.984;7.964;2023-02-28T17:53:29;97803.69;;;0.29;69.85
43701;BME280;58809;47.984;7.964;2023-02-28T17:56:31;97801.69;;;0.19;69.53
43701;BME280;58809;47.984;7.964;2023-02-28T17:59:33;97807.84;;;0.18;70.05
43701;BME280;58809;47.984;7.964;2023-02-28T18:02:34;97808.44;;;0.09;70.17
43701;BME280;58809;47.984;7.964;2023-02-28T18:05:36;97811.78;;;0.11;70.32
43701;BME280;58809;47.984;7.964;2023-02-28T18:08:38;97805.22;;;0.06;70.33
43701;BME280;58809;47.984;7.964;2023-02-28T18:11:40;97812.16;;;0.05;70.74
43701;BME280;58809;47.984;7.964;2023-02-28T18:14:50;97811.84;;;-0.03;70.88
43701;BME280;58809;47.984;7.964;2023-02-28T18:17:51;97807.25;;;-0.12;71.41